Time;durP1;ratioP1;P1;durP2;ratioP2;P2;SDS_P1;SDS_P2;PMS_P1;PMS_P2;Temp;Humidity;BMP_temperature;BMP_pressure;BME280_temperature;BME280_humidity;BME280_pressure;Samples;Min_cycle;Max_cycle;Signal;HPM_P1;HPM_P2
2022/05/02 00:00:04;;;;;;;;;;;;;;;10.19;100.00;100230.13;5054115;28;19908;-61
2022/05/02 00:02:29;;;;;;;;;;;;;;;10.12;100.00;100225.00;5038812;28;20108;-61
2022/05/02 00:04:54;;;;;;;;;;;;;;;10.03;100.00;100220.78;5033970;28;20030;-61
2022/05/02 00:07:20;;;;;;;;;;;;;;;10.00;100.00;100210.25;5034067;28;20014;-61
2022/05/02 00:09:45;;;;;;;;;;;;;;;9.97;100.00;100212.97;5033590;28;19920;-61
2022/05/02 00:12:10;;;;;;;;;;;;;;;10.03;100.00;100218.13;5033976;28;19952;-61
2022/05/02 00:14:36;;;;;;;;;;;;;;;9.94;100.00;100204.22;5034034;28;19912;-61
2022/05/02 00:17:01;;;;;;;;;;;;;;;9.86;100.00;100206.22;5041315;28;19912;-61
2022/05/02 00:19:26;;;;;;;;;;;;;;;9.80;100.00;100204.59;5053627;28;19916;-60
2022/05/02 00:21:52;;;;;;;;;;;;;;;9.79;100.00;100202.84;5053058;28;19952;-60
2022/05/02 00:24:17;;;;;;;;;;;;;;;9.74;100.00;100210.06;5053970;28;19909;-60
2022/05/02 00:26:42;;;;;;;;;;;;;;;9.77;100.00;100209.13;5053748;28;19966;-61
2022/05/02 00:29:08;;;;;;;;;;;;;;;9.76;100.00;100200.28;5053636;28;19909;-61
2022/05/02 00:31:33;;;;;;;;;;;;;;;9.80;100.00;100203.72;5053896;28;19916;-61
2022/05/02 00:33:59;;;;;;;;;;;;;;;9.81;100.00;100202.81;5053684;28;20326;-61
2022/05/02 00:36:24;;;;;;;;;;;;;;;9.78;100.00;100197.59;5053495;28;19952;-60
2022/05/02 00:38:50;;;;;;;;;;;;;;;9.80;100.00;100203.72;5053553;28;19912;-61
2022/05/02 00:41:15;;;;;;;;;;;;;;;9.77;100.00;100196.69;5053383;28;19909;-61
2022/05/02 00:43:41;;;;;;;;;;;;;;;9.72;100.00;100195.09;5053437;28;19908;-60
2022/05/02 00:46:19;;;;;;;;;;;;;;;9.74;100.00;100199.44;5042442;28;19969;-61
2022/05/02 00:48:45;;;;;;;;;;;;;;;9.68;100.00;100196.97;5035894;28;19908;-61
2022/05/02 00:51:10;;;;;;;;;;;;;;;9.54;100.00;100201.72;5045683;28;20352;-61
2022/05/02 00:53:35;;;;;;;;;;;;;;;9.56;100.00;100196.38;5053191;28;19916;-60
2022/05/02 00:56:02;;;;;;;;;;;;;;;9.48;100.00;100196.59;5053095;28;20019;-60
2022/05/02 00:58:28;;;;;;;;;;;;;;;9.44;100.00;100199.38;5053449;28;19916;-61
2022/05/02 01:00:53;;;;;;;;;;;;;;;9.39;100.00;100186.19;5053120;28;19909;-61
2022/05/02 01:03:19;;;;;;;;;;;;;;;9.37;100.00;100190.69;5053047;28;19946;-61
2022/05/02 01:08:31;;;;;;;;;;;;;;;9.28;100.00;100193.56;5052909;28;20026;-61
2022/05/02 01:10:57;;;;;;;;;;;;;;;9.32;100.00;100189.94;5052089;28;19908;-60
2022/05/02 01:13:38;;;;;;;;;;;;;;;9.32;100.00;100187.28;5052785;28;19931;-60
2022/05/02 01:16:18;;;;;;;;;;;;;;;9.31;100.00;100193.47;5032833;28;19912;-60
2022/05/02 01:18:44;;;;;;;;;;;;;;;9.37;100.00;100187.16;5032906;28;19916;-60
2022/05/02 01:21:10;;;;;;;;;;;;;;;9.33;100.00;100191.66;5032502;28;19962;-60
2022/05/02 01:23:36;;;;;;;;;;;;;;;9.30;100.00;100186.44;5032767;28;19921;-60
2022/05/02 01:26:01;;;;;;;;;;;;;;;9.31;100.00;100183.75;5032339;28;19920;-60
2022/05/02 01:28:28;;;;;;;;;;;;;;;9.38;100.00;100184.44;5032731;28;20435;-61
2022/05/02 01:30:54;;;;;;;;;;;;;;;9.47;100.00;100184.25;5032717;28;19909;-60
2022/05/02 01:33:19;;;;;;;;;;;;;;;9.53;100.00;100181.41;5032556;28;19916;-60
2022/05/02 01:35:44;;;;;;;;;;;;;;;9.48;100.00;100183.31;5032397;28;20384;-60
2022/05/02 01:38:10;;;;;;;;;;;;;;;9.43;100.00;100182.56;5032073;28;19909;-61
2022/05/02 01:40:35;;;;;;;;;;;;;;;9.40;100.00;100182.63;5040100;28;19912;-61
2022/05/02 01:43:00;;;;;;;;;;;;;;;9.39;100.00;100175.56;5051494;28;19913;-61
2022/05/02 01:45:25;;;;;;;;;;;;;;;9.44;100.00;100180.78;5052238;28;19999;-61
2022/05/02 01:47:51;;;;;;;;;;;;;;;9.45;100.00;100180.75;5052216;28;20679;-61
2022/05/02 01:50:16;;;;;;;;;;;;;;;9.45;100.00;100180.75;5052277;28;20035;-61
2022/05/02 01:52:41;;;;;;;;;;;;;;;9.44;100.00;100178.97;5052380;28;19961;-60
2022/05/02 01:55:07;;;;;;;;;;;;;;;9.51;100.00;100175.25;5051851;28;20273;-60
2022/05/02 01:57:32;;;;;;;;;;;;;;;9.52;100.00;100179.69;5051433;28;19917;-60
2022/05/02 01:59:58;;;;;;;;;;;;;;;9.44;100.00;100178.13;5051595;28;19919;-61
2022/05/02 02:02:23;;;;;;;;;;;;;;;9.40;100.00;100180.00;5035084;28;19916;-61
2022/05/02 02:07:32;;;;;;;;;;;;;;;9.35;100.00;100187.19;5031980;28;19920;-61
2022/05/02 02:09:57;;;;;;;;;;;;;;;9.29;100.00;100184.69;5032143;28;19913;-61
2022/05/02 02:12:22;;;;;;;;;;;;;;;9.27;100.00;100175.91;5031998;28;19978;-61
2022/05/02 02:14:48;;;;;;;;;;;;;;;9.24;100.00;100178.63;5032135;28;19958;-61
2022/05/02 02:17:13;;;;;;;;;;;;;;;9.15;100.00;100169.09;5034771;28;19913;-61
2022/05/02 02:19:38;;;;;;;;;;;;;;;9.06;100.00;100177.28;5031964;28;19982;-61
2022/05/02 02:22:16;;;;;;;;;;;;;;;9.09;100.00;100171.03;5033623;28;19944;-61
2022/05/02 02:24:44;;;;;;;;;;;;;;;9.11;100.00;100174.50;5043251;28;19967;-61
2022/05/02 02:27:09;;;;;;;;;;;;;;;9.06;100.00;100174.63;5055826;28;19917;-61
2022/05/02 02:29:34;;;;;;;;;;;;;;;8.98;100.00;100173.94;5056061;28;19909;-61
2022/05/02 02:31:59;;;;;;;;;;;;;;;8.90;100.00;100169.72;5037838;28;19915;-61
2022/05/02 02:34:25;;;;;;;;;;;;;;;8.87;100.00;100175.09;5056026;28;19912;-61
2022/05/02 02:36:50;;;;;;;;;;;;;;;8.84;100.00;100169.88;5055506;28;19913;-61
2022/05/02 02:39:15;;;;;;;;;;;;;;;8.76;100.00;100174.47;5056059;28;19909;-61
2022/05/02 02:41:41;;;;;;;;;;;;;;;8.73;100.00;100171.91;5055393;28;19908;-61
2022/05/02 02:44:06;;;;;;;;;;;;;;;8.72;100.00;100171.03;5040224;28;20331;-61
2022/05/02 02:46:31;;;;;;;;;;;;;;;8.77;100.00;100168.25;5055245;28;19999;-61
2022/05/02 02:48:56;;;;;;;;;;;;;;;8.77;100.00;100163.84;5055980;28;19908;-61
2022/05/02 02:51:22;;;;;;;;;;;;;;;8.69;100.00;100162.25;5054597;28;20011;-61
2022/05/02 02:53:48;;;;;;;;;;;;;;;8.62;100.00;100158.00;5053018;28;19909;-61
2022/05/02 02:56:14;;;;;;;;;;;;;;;8.56;100.00;100151.06;5055259;28;19923;-61
2022/05/02 02:58:39;;;;;;;;;;;;;;;8.58;100.00;100159.00;5055545;28;19909;-61
2022/05/02 03:01:05;;;;;;;;;;;;;;;8.57;100.00;100143.97;5055121;28;20004;-61
2022/05/02 03:03:30;;;;;;;;;;;;;;;8.53;100.00;100148.50;5055716;28;19909;-60
2022/05/02 03:06:02;;;;;;;;;;;;;;;8.50;100.00;100152.97;5054995;28;19917;-60
2022/05/02 03:08:27;;;;;;;;;;;;;;;8.51;100.00;100147.66;5055627;28;20379;-60
2022/05/02 03:10:54;;;;;;;;;;;;;;;8.51;100.00;100149.41;5054899;28;19909;-61
2022/05/02 03:13:19;;;;;;;;;;;;;;;8.49;100.00;100143.28;5055284;28;20332;-61
2022/05/02 03:15:45;;;;;;;;;;;;;;;8.50;100.00;100139.72;5053330;28;19913;-61
2022/05/02 03:18:10;;;;;;;;;;;;;;;8.54;100.00;100149.34;5054323;28;19916;-61
2022/05/02 03:20:35;;;;;;;;;;;;;;;8.58;100.00;100146.56;5054679;28;20265;-61
2022/05/02 03:23:00;;;;;;;;;;;;;;;8.56;100.00;100142.22;5054330;28;19917;-61
2022/05/02 03:25:26;;;;;;;;;;;;;;;8.47;100.00;100142.41;5054733;28;19974;-61
2022/05/02 03:27:51;;;;;;;;;;;;;;;8.43;100.00;100135.47;5054966;28;20411;-61
2022/05/02 03:30:16;;;;;;;;;;;;;;;8.42;100.00;100139.03;5054724;28;20262;-61
2022/05/02 03:32:42;;;;;;;;;;;;;;;8.42;100.00;100139.88;5054316;28;19927;-61
2022/05/02 03:35:07;;;;;;;;;;;;;;;8.42;100.00;100139.03;5054496;28;20433;-61
2022/05/02 03:37:33;;;;;;;;;;;;;;;8.44;100.00;100145.16;5055126;28;19913;-61
2022/05/02 03:39:58;;;;;;;;;;;;;;;8.40;100.00;100140.84;5054662;28;20379;-61
2022/05/02 03:42:23;;;;;;;;;;;;;;;8.40;100.00;100151.44;5054518;28;20046;-61
2022/05/02 03:44:49;;;;;;;;;;;;;;;8.50;100.00;100147.69;5054556;28;19915;-61
2022/05/02 03:47:14;;;;;;;;;;;;;;;8.50;100.00;100145.03;5054083;28;20447;-61
2022/05/02 03:49:39;;;;;;;;;;;;;;;8.47;100.00;100142.41;5054244;28;19909;-61
2022/05/02 03:52:05;;;;;;;;;;;;;;;8.48;100.00;100144.19;5054311;28;20422;-61
2022/05/02 03:54:30;;;;;;;;;;;;;;;8.43;100.00;100143.41;5051388;28;19943;-61
2022/05/02 03:56:56;;;;;;;;;;;;;;;8.44;100.00;100148.69;5054113;28;19909;-61
2022/05/02 03:59:21;;;;;;;;;;;;;;;8.47;100.00;100150.38;5054476;28;20518;-61
2022/05/02 04:01:46;;;;;;;;;;;;;;;8.51;100.00;100145.00;5054059;28;19909;-61
2022/05/02 04:04:12;;;;;;;;;;;;;;;8.58;100.00;100149.22;5054207;28;20004;-61
2022/05/02 04:06:37;;;;;;;;;;;;;;;8.54;100.00;100150.22;5053962;28;19912;-61
2022/05/02 04:09:03;;;;;;;;;;;;;;;8.45;100.00;100149.56;5054203;28;19916;-61
2022/05/02 04:11:28;;;;;;;;;;;;;;;8.41;100.00;100147.88;5053957;28;20279;-61
2022/05/02 04:13:53;;;;;;;;;;;;;;;8.39;100.00;100147.91;5054177;28;19908;-61
2022/05/02 04:16:19;;;;;;;;;;;;;;;8.34;100.00;100149.78;5049161;28;19932;-61
2022/05/02 04:18:45;;;;;;;;;;;;;;;8.33;100.00;100152.47;5053965;28;19915;-61
2022/05/02 04:21:11;;;;;;;;;;;;;;;8.45;100.00;100157.50;5053510;28;19919;-61
2022/05/02 04:23:36;;;;;;;;;;;;;;;8.45;100.00;100154.88;5054019;28;19908;-61
2022/05/02 04:26:02;;;;;;;;;;;;;;;8.46;100.00;100152.19;5053245;28;20012;-61
2022/05/02 04:28:28;;;;;;;;;;;;;;;8.55;100.00;100156.41;5052607;28;19909;-61
2022/05/02 04:30:53;;;;;;;;;;;;;;;8.58;100.00;100156.34;5053864;28;19935;-61
2022/05/02 04:33:19;;;;;;;;;;;;;;;8.64;100.00;100156.19;5053657;28;19912;-61
2022/05/02 04:35:44;;;;;;;;;;;;;;;8.83;100.00;100149.56;5053395;28;19951;-61
2022/05/02 04:38:09;;;;;;;;;;;;;;;8.94;100.00;100151.06;5053449;28;19909;-61
2022/05/02 04:40:35;;;;;;;;;;;;;;;9.09;100.00;100149.81;5053532;28;19912;-61
2022/05/02 04:43:00;;;;;;;;;;;;;;;9.23;100.00;100156.53;5053429;28;20003;-61
2022/05/02 04:45:25;;;;;;;;;;;;;;;9.33;100.00;100150.06;5038299;28;20006;-61
2022/05/02 04:47:51;;;;;;;;;;;;;;;9.43;100.00;100150.69;5033421;28;19916;-61
2022/05/02 04:50:16;;;;;;;;;;;;;;;9.51;100.00;100148.72;5038071;28;19916;-61
2022/05/02 04:52:41;;;;;;;;;;;;;;;9.61;100.00;100150.22;5053213;28;20086;-61
2022/05/02 04:55:07;;;;;;;;;;;;;;;9.64;100.00;100160.75;5053326;28;19999;-61
2022/05/02 04:57:32;;;;;;;;;;;;;;;9.66;100.00;100150.09;5052946;28;19919;-61
2022/05/02 04:59:58;;;;;;;;;;;;;;;9.70;100.00;100154.41;5053297;28;19944;-61
2022/05/02 05:02:23;;;;;;;;;;;;;;;9.77;100.00;100154.19;5052928;28;19912;-61
2022/05/02 05:04:49;;;;;;;;;;;;;;;9.86;100.00;100151.31;5052994;28;20003;-61
2022/05/02 05:07:14;;;;;;;;;;;;;;;9.92;100.00;100159.09;5052900;28;19988;-61
2022/05/02 05:09:39;;;;;;;;;;;;;;;10.02;100.00;100151.72;5052997;28;19908;-61
2022/05/02 05:12:11;;;;;;;;;;;;;;;10.11;100.00;100155.06;5052774;28;20328;-61
2022/05/02 05:17:49;;;;;;;;;;;;;;;10.35;100.00;100150.78;5052912;28;19919;-61
2022/05/02 05:20:17;;;;;;;;;;;;;;;10.45;100.00;100145.19;5052414;28;19917;-61
2022/05/02 05:23:02;;;;;;;;;;;;;;;10.59;100.00;100139.44;5051889;28;20418;-61
2022/05/02 05:25:37;;;;;;;;;;;;;;;10.74;100.00;100146.06;5032701;28;19921;-61
2022/05/02 05:28:13;;;;;;;;;;;;;;;10.93;100.00;100141.91;5032522;28;19916;-61
2022/05/02 05:30:42;;;;;;;;;;;;;;;11.05;100.00;100141.50;5032729;28;20012;-61
2022/05/02 05:33:16;;;;;;;;;;;;;;;11.04;100.00;100139.75;5032625;28;19909;-61
2022/05/02 05:35:47;;;;;;;;;;;;;;;11.22;100.00;100141.84;5032568;28;19916;-61
2022/05/02 05:38:17;;;;;;;;;;;;;;;11.33;100.00;100134.34;5032356;28;19912;-61
2022/05/02 05:40:44;;;;;;;;;;;;;;;11.49;100.00;100146.22;5042598;28;20007;-61
2022/05/02 05:43:12;;;;;;;;;;;;;;;11.59;100.00;100137.88;5052074;28;19909;-61
2022/05/02 05:45:40;;;;;;;;;;;;;;;11.58;100.00;100145.94;5052300;28;20041;-61
2022/05/02 05:48:17;;;;;;;;;;;;;;;11.63;100.00;100138.66;5047986;28;19924;-61
2022/05/02 05:51:03;;;;;;;;;;;;;;;11.65;100.00;100132.34;5032102;28;19920;-61
2022/05/02 05:53:28;;;;;;;;;;;;;;;11.63;100.00;100144.84;5032249;28;19952;-61
2022/05/02 05:56:12;;;;;;;;;;;;;;;11.53;100.00;100135.41;5032167;28;19951;-61
2022/05/02 05:58:46;;;;;;;;;;;;;;;11.51;100.00;100136.41;5032305;28;20329;-61
2022/05/02 06:01:14;;;;;;;;;;;;;;;11.51;100.00;100139.06;5032010;28;20003;-61
2022/05/02 06:03:58;;;;;;;;;;;;;;;11.54;100.00;100133.63;5032362;28;20349;-61
2022/05/02 06:06:25;;;;;;;;;;;;;;;11.54;100.00;100133.63;5032053;28;20004;-61
2022/05/02 06:08:52;;;;;;;;;;;;;;;11.63;100.00;100128.00;5032102;28;19941;-61
2022/05/02 06:11:19;;;;;;;;;;;;;;;11.76;100.00;100129.31;5031746;28;20391;-61
2022/05/02 06:13:45;;;;;;;;;;;;;;;11.84;100.00;100133.44;5032133;28;19915;-61
2022/05/02 06:18:57;;;;;;;;;;;;;;;12.26;100.00;100135.44;5052075;28;19918;-61
2022/05/02 06:21:23;;;;;;;;;;;;;;;12.57;100.00;100141.38;5035249;28;19916;-61
2022/05/02 06:23:50;;;;;;;;;;;;;;;12.89;100.00;100130.31;5031665;28;19921;-61
2022/05/02 06:26:16;;;;;;;;;;;;;;;13.15;100.00;100125.69;5031953;28;19921;-61
2022/05/02 06:28:43;;;;;;;;;;;;;;;13.27;100.00;100121.63;5031884;28;19909;-61
2022/05/02 06:31:14;;;;;;;;;;;;;;;13.33;100.00;100128.53;5031802;28;19916;-61
2022/05/02 06:33:41;;;;;;;;;;;;;;;13.55;100.00;100124.88;5040623;28;19909;-61
2022/05/02 06:36:24;;;;;;;;;;;;;;;13.82;99.95;100134.34;5051706;28;19913;-61
2022/05/02 06:38:50;;;;;;;;;;;;;;;14.08;98.72;100130.53;5051424;28;19961;-61
2022/05/02 06:41:25;;;;;;;;;;;;;;;14.33;97.83;100128.53;5050692;28;19912;-61
2022/05/02 06:43:50;;;;;;;;;;;;;;;14.62;95.68;100128.03;5051657;28;19909;-61
2022/05/02 06:46:19;;;;;;;;;;;;;;;14.72;93.44;100132.00;5051368;28;19916;-61
2022/05/02 06:48:47;;;;;;;;;;;;;;;14.77;92.25;100126.44;5037595;28;19919;-61
2022/05/02 06:51:20;;;;;;;;;;;;;;;14.96;92.44;100128.13;5031539;28;20047;-61
2022/05/02 06:54:01;;;;;;;;;;;;;;;15.21;91.06;100123.31;5034083;28;19913;-61
2022/05/02 06:56:33;;;;;;;;;;;;;;;15.46;90.39;100118.50;5037950;28;19966;-61
2022/05/02 06:58:58;;;;;;;;;;;;;;;15.64;87.80;100120.25;5051407;28;19908;-61
2022/05/02 07:01:39;;;;;;;;;;;;;;;15.80;86.15;100123.88;5051436;28;19932;-61
2022/05/02 07:04:29;;;;;;;;;;;;;;;16.16;83.17;100121.03;5051783;28;19908;-61
2022/05/02 07:07:12;;;;;;;;;;;;;;;16.66;80.20;100121.00;5051075;28;19974;-61
2022/05/02 07:09:41;;;;;;;;;;;;;;;16.89;78.12;100118.78;5055101;28;19915;-61
2022/05/02 07:12:18;;;;;;;;;;;;;;;16.98;77.07;100120.91;5055073;28;19934;-61
2022/05/02 07:14:43;;;;;;;;;;;;;;;17.29;76.05;100120.03;5055169;28;19916;-61
2022/05/02 07:17:15;;;;;;;;;;;;;;;17.55;74.41;100119.41;5054777;28;19909;-61
2022/05/02 07:19:56;;;;;;;;;;;;;;;18.03;71.56;100131.72;5054326;28;19978;-61
2022/05/02 07:22:32;;;;;;;;;;;;;;;18.03;69.52;100126.34;5054691;28;19927;-61
2022/05/02 07:25:01;;;;;;;;;;;;;;;18.22;68.93;100126.94;5054801;28;19909;-61
2022/05/02 07:27:26;;;;;;;;;;;;;;;18.46;66.25;100127.28;5054528;28;20368;-61
2022/05/02 07:29:56;;;;;;;;;;;;;;;18.81;67.13;100139.38;5054564;28;19912;-61
2022/05/02 07:32:22;;;;;;;;;;;;;;;18.93;64.07;100133.22;5054105;28;19952;-61
2022/05/02 07:34:47;;;;;;;;;;;;;;;19.20;61.13;100128.69;5053288;28;19913;-61
2022/05/02 07:37:14;;;;;;;;;;;;;;;18.96;61.77;100124.91;5054457;28;19908;-61
2022/05/02 07:39:41;;;;;;;;;;;;;;;19.18;62.36;100131.50;5054503;28;19931;-61
2022/05/02 07:42:08;;;;;;;;;;;;;;;19.73;62.21;100130.53;5054288;28;19912;-61
2022/05/02 07:44:34;;;;;;;;;;;;;;;19.93;57.41;100124.63;5054371;28;20034;-61
2022/05/02 07:47:01;;;;;;;;;;;;;;;19.92;60.40;100123.75;5054264;28;19943;-61
2022/05/02 07:49:28;;;;;;;;;;;;;;;20.48;57.85;100117.97;5054529;28;19908;-61
2022/05/02 07:51:53;;;;;;;;;;;;;;;20.91;55.18;100127.41;5053990;28;19917;-61
2022/05/02 07:54:20;;;;;;;;;;;;;;;21.16;55.72;100122.94;5054245;28;19915;-61
2022/05/02 07:56:46;;;;;;;;;;;;;;;21.27;57.63;100123.84;5052998;28;20339;-61
2022/05/02 07:59:14;;;;;;;;;;;;;;;21.72;56.08;100119.53;5035891;28;19919;-61
2022/05/02 08:01:39;;;;;;;;;;;;;;;21.88;55.46;100131.81;5034323;28;19915;-61
2022/05/02 08:04:04;;;;;;;;;;;;;;;22.20;54.21;100121.19;5034168;28;20007;-61
2022/05/02 08:06:36;;;;;;;;;;;;;;;22.24;53.24;100128.06;5034098;28;19913;-61
2022/05/02 08:09:07;;;;;;;;;;;;;;;22.44;54.26;100123.81;5034136;28;19978;-61
2022/05/02 08:11:55;;;;;;;;;;;;;;;22.40;54.81;100131.31;5032892;28;19997;-62
2022/05/02 08:14:25;;;;;;;;;;;;;;;22.70;52.71;100126.16;5013420;28;19952;-61
2022/05/02 08:16:57;;;;;;;;;;;;;;;23.12;52.96;100127.25;5039726;28;19965;-61
2022/05/02 08:19:28;;;;;;;;;;;;;;;23.40;50.37;100122.16;5053797;28;19915;-61
2022/05/02 08:27:15;;;;;;;;;;;;;;;23.20;49.39;100120.19;5053676;28;19931;-61
2022/05/02 08:27:44;;;;;;;;;;;;;;;23.74;49.32;100119.31;5033622;28;19923;-61
2022/05/02 08:30:23;;;;;;;;;;;;;;;23.87;51.40;100118.13;5033463;28;20284;-61
2022/05/02 08:33:07;;;;;;;;;;;;;;;23.78;48.29;100112.59;5032321;28;19916;-61
2022/05/02 08:35:39;;;;;;;;;;;;;;;23.89;48.61;100118.84;5032820;28;19916;-61
2022/05/02 08:38:22;;;;;;;;;;;;;;;24.10;47.09;100116.19;5042222;28;20482;-61
2022/05/02 08:40:56;;;;;;;;;;;;;;;24.14;50.23;100113.06;5049891;28;20360;-61
2022/05/02 08:43:40;;;;;;;;;;;;;;;24.63;48.85;100104.16;5053448;28;19962;-61
2022/05/02 08:46:18;;;;;;;;;;;;;;;24.90;47.13;100107.19;5052771;28;20031;-61
2022/05/02 08:49:32;;;;;;;;;;;;;;;25.04;45.61;100119.56;5035093;28;19909;-61
2022/05/02 08:51:54;;;;;;;;;;;;;;;24.96;46.68;100103.06;5033010;28;19932;-61
2022/05/02 08:54:42;;;;;;;;;;;;;;;24.87;47.66;100107.47;5052204;28;19936;-61
2022/05/02 08:57:26;;;;;;;;;;;;;;;24.19;46.13;100104.50;5030191;28;19932;-61
2022/05/02 08:59:54;;;;;;;;;;;;;;;23.70;49.61;100104.25;5033407;28;19927;-61
2022/05/02 09:02:20;;;;;;;;;;;;;;;23.18;50.33;100105.88;5033120;28;20292;-61
2022/05/02 09:04:59;;;;;;;;;;;;;;;22.78;50.82;100107.44;5033050;28;20016;-61
2022/05/02 09:07:42;;;;;;;;;;;;;;;22.59;51.91;100107.19;5032886;28;20016;-61
2022/05/02 09:10:07;;;;;;;;;;;;;;;22.46;52.41;100106.41;5038303;28;20010;-61
2022/05/02 09:12:51;;;;;;;;;;;;;;;22.37;51.92;100101.75;5052479;28;20000;-61
2022/05/02 09:15:17;;;;;;;;;;;;;;;22.40;53.28;100101.50;5052763;28;19979;-61
2022/05/02 09:18:03;;;;;;;;;;;;;;;22.66;51.60;100102.13;5052604;28;19939;-61
2022/05/02 09:20:38;;;;;;;;;;;;;;;22.58;51.27;100100.06;5041428;28;20343;-61
2022/05/02 09:23:24;;;;;;;;;;;;;;;22.53;52.80;100091.44;5052474;28;20431;-61
2022/05/02 09:25:58;;;;;;;;;;;;;;;22.60;52.06;100094.50;5001754;28;19978;-61
2022/05/02 09:28:32;;;;;;;;;;;;;;;22.43;51.54;100095.81;5052515;28;19908;-61
2022/05/02 09:31:16;;;;;;;;;;;;;;;22.17;51.19;100097.03;5052034;28;19908;-61
2022/05/02 09:33:44;;;;;;;;;;;;;;;21.77;51.33;100090.28;5052484;28;19924;-61
2022/05/02 09:36:17;;;;;;;;;;;;;;;21.80;54.56;100092.75;5052242;28;19912;-61
2022/05/02 09:38:48;;;;;;;;;;;;;;;21.72;52.68;100089.72;5052453;28;19997;-61
2022/05/02 09:41:33;;;;;;;;;;;;;;;21.95;52.52;100091.56;5052083;28;19943;-61
2022/05/02 09:49:49;;;;;;;;;;;;;;;22.35;51.63;100078.44;5051702;28;20062;-61
2022/05/02 09:52:15;;;;;;;;;;;;;;;22.13;51.91;100085.56;5052273;28;19990;-61
2022/05/02 09:57:57;;;;;;;;;;;;;;;21.41;54.25;100082.22;5034649;28;19935;-61
2022/05/02 10:03:21;;;;;;;;;;;;;;;21.08;53.12;100079.34;5032177;28;19915;-60
2022/05/02 10:05:49;;;;;;;;;;;;;;;21.07;54.20;100077.63;5031933;28;19921;-60
2022/05/02 10:08:33;;;;;;;;;;;;;;;21.13;54.03;100072.63;5032066;28;19908;-60
2022/05/02 10:10:59;;;;;;;;;;;;;;;20.93;53.26;100071.38;5031835;28;19909;-60
2022/05/02 10:13:32;;;;;;;;;;;;;;;20.97;52.46;100071.16;5032127;28;19955;-60
2022/05/02 10:16:16;;;;;;;;;;;;;;;21.13;53.90;100064.50;5031925;28;19916;-60
2022/05/02 10:18:51;;;;;;;;;;;;;;;21.37;55.29;100059.94;5031822;28;19912;-61
2022/05/02 10:21:23;;;;;;;;;;;;;;;21.32;55.07;100066.69;5031731;28;19912;-61
2022/05/02 10:24:15;;;;;;;;;;;;;;;21.32;53.66;100066.69;5031887;28;20327;-60
2022/05/02 10:26:54;;;;;;;;;;;;;;;21.48;53.22;100062.69;4993748;28;19916;-61
2022/05/02 10:29:20;;;;;;;;;;;;;;;21.36;53.96;100062.78;5031897;28;19932;-60
2022/05/02 10:31:49;;;;;;;;;;;;;;;21.40;57.19;100053.47;5031594;28;19909;-60
2022/05/02 10:34:17;;;;;;;;;;;;;;;21.29;55.16;100056.09;5037196;28;20364;-60
2022/05/02 10:36:45;;;;;;;;;;;;;;;20.95;57.62;100064.00;5048089;28;19912;-60
2022/05/02 10:39:29;;;;;;;;;;;;;;;20.93;54.35;100055.16;5048214;28;19909;-60
2022/05/02 10:41:58;;;;;;;;;;;;;;;21.25;54.84;100060.03;5030175;28;20273;-60
2022/05/02 10:44:27;;;;;;;;;;;;;;;21.46;56.04;100053.84;5035661;28;19959;-60
2022/05/02 10:46:58;;;;;;;;;;;;;;;21.57;57.41;100053.00;5035018;28;19960;-60
2022/05/02 10:49:30;;;;;;;;;;;;;;;21.78;56.77;100048.66;5046713;28;19974;-61
2022/05/02 10:51:58;;;;;;;;;;;;;;;21.98;54.99;100039.84;5055438;28;19908;-61
2022/05/02 10:54:27;;;;;;;;;;;;;;;21.91;54.42;100049.47;5055571;28;19912;-61
2022/05/02 10:56:58;;;;;;;;;;;;;;;21.84;53.54;100040.09;5055159;28;19970;-61
2022/05/02 10:59:28;;;;;;;;;;;;;;;21.57;54.61;100043.06;5055792;28;20380;-61
2022/05/02 11:02:02;;;;;;;;;;;;;;;21.33;54.53;100035.94;5055603;28;20367;-61
2022/05/02 11:04:51;;;;;;;;;;;;;;;21.35;56.25;100034.00;5055206;28;20391;-60
2022/05/02 11:07:35;;;;;;;;;;;;;;;21.43;56.27;100032.41;5054929;28;19994;-60
2022/05/02 11:10:08;;;;;;;;;;;;;;;21.65;55.68;100037.91;5055157;28;19909;-60
2022/05/02 11:12:52;;;;;;;;;;;;;;;21.23;54.47;100029.50;5055069;28;20008;-60
2022/05/02 11:15:18;;;;;;;;;;;;;;;20.98;55.67;100026.91;5055070;28;19912;-60
2022/05/02 11:17:46;;;;;;;;;;;;;;;20.92;56.54;100025.53;5054215;28;19912;-60
2022/05/02 11:23:03;;;;;;;;;;;;;;;20.99;56.33;100020.56;5054722;28;20018;-60
2022/05/02 11:25:34;;;;;;;;;;;;;;;21.18;55.45;100005.53;5054537;28;19909;-60
2022/05/02 11:28:19;;;;;;;;;;;;;;;21.20;54.58;100013.50;5054754;28;19909;-60
2022/05/02 11:30:44;;;;;;;;;;;;;;;21.56;54.22;100007.97;5054731;28;19917;-60
2022/05/02 11:33:18;;;;;;;;;;;;;;;21.69;54.97;100011.44;5054856;28;19932;-60
2022/05/02 11:35:48;;;;;;;;;;;;;;;22.09;55.09;100010.06;5054266;28;20433;-60
2022/05/02 11:38:16;;;;;;;;;;;;;;;22.45;51.97;100012.53;5054907;28;19909;-61
2022/05/02 11:40:43;;;;;;;;;;;;;;;22.53;50.39;100007.38;5054487;28;19970;-61
2022/05/02 11:43:09;;;;;;;;;;;;;;;22.74;50.56;100011.03;5054442;28;19919;-61
2022/05/02 11:45:47;;;;;;;;;;;;;;;22.71;50.70;100005.88;5054406;28;19909;-61
2022/05/02 11:48:35;;;;;;;;;;;;;;;22.69;47.85;100007.84;5054285;28;19912;-61
2022/05/02 11:51:03;;;;;;;;;;;;;;;22.57;49.94;99999.84;5054077;28;20003;-61
2022/05/02 11:53:32;;;;;;;;;;;;;;;22.81;50.09;100008.66;5053943;28;19963;-61
2022/05/02 11:56:01;;;;;;;;;;;;;;;22.59;48.06;100004.16;5053922;28;19912;-61
2022/05/02 11:58:34;;;;;;;;;;;;;;;22.53;50.08;100003.78;5052490;28;19924;-61
2022/05/02 12:01:05;;;;;;;;;;;;;;;22.37;49.60;100006.00;5034887;28;19975;-61
2022/05/02 12:03:47;;;;;;;;;;;;;;;22.44;51.59;99997.22;5034231;28;19923;-61
2022/05/02 12:06:15;;;;;;;;;;;;;;;22.39;50.14;99993.19;5033822;28;19923;-61
2022/05/02 12:08:44;;;;;;;;;;;;;;;22.68;51.21;99994.41;5034232;28;19916;-61
2022/05/02 12:11:10;;;;;;;;;;;;;;;22.78;49.78;99992.66;5033796;28;19913;-61
2022/05/02 12:13:40;;;;;;;;;;;;;;;22.64;48.41;99992.91;5033940;28;19916;-61
2022/05/02 12:16:15;;;;;;;;;;;;;;;22.81;48.92;99995.97;5034096;28;20387;-61
2022/05/02 12:18:42;;;;;;;;;;;;;;;22.84;47.84;99995.72;5034157;28;20000;-61
2022/05/02 12:21:08;;;;;;;;;;;;;;;22.74;49.83;99991.19;5033884;28;19909;-61
2022/05/02 12:23:35;;;;;;;;;;;;;;;23.28;48.11;99984.72;5035253;28;19920;-61
2022/05/02 12:26:03;;;;;;;;;;;;;;;23.90;46.90;99983.88;5033346;28;19945;-61
2022/05/02 12:28:48;;;;;;;;;;;;;;;24.68;46.20;99976.78;5033768;28;19909;-61
2022/05/02 12:31:24;;;;;;;;;;;;;;;25.16;46.93;99972.25;5038667;28;19908;-61
2022/05/02 12:33:55;;;;;;;;;;;;;;;25.69;47.01;99970.81;5053370;28;20366;-61
2022/05/02 12:36:24;;;;;;;;;;;;;;;25.54;42.81;99964.09;5053391;28;19912;-61
2022/05/02 12:39:04;;;;;;;;;;;;;;;25.93;42.91;99963.00;5053512;28;19917;-61
2022/05/02 12:41:31;;;;;;;;;;;;;;;26.60;41.00;99967.34;5046631;28;19999;-61
2022/05/02 12:44:04;;;;;;;;;;;;;;;26.19;40.80;99962.38;5033409;28;19916;-61
2022/05/02 12:46:33;;;;;;;;;;;;;;;25.86;41.42;99961.03;5033044;28;19985;-61
2022/05/02 12:49:03;;;;;;;;;;;;;;;25.57;41.98;99961.09;5045046;28;19909;-61
2022/05/02 12:51:30;;;;;;;;;;;;;;;25.51;41.57;99958.94;5053201;28;19940;-61
2022/05/02 12:54:13;;;;;;;;;;;;;;;25.58;42.98;99957.38;5053228;28;19958;-61
2022/05/02 13:02:35;;;;;;;;;;;;;;;25.20;43.29;99948.34;5053026;28;19916;-61
2022/05/02 13:05:01;;;;;;;;;;;;;;;25.48;42.73;99948.34;5052334;28;19916;-61
2022/05/02 13:07:26;;;;;;;;;;;;;;;25.86;43.38;99940.06;5052226;28;19916;-61
2022/05/02 13:09:52;;;;;;;;;;;;;;;26.50;41.50;99939.25;5051383;28;20364;-61
2022/05/02 13:12:19;;;;;;;;;;;;;;;27.15;40.34;99941.66;5052318;28;20042;-61
2022/05/02 13:14:46;;;;;;;;;;;;;;;27.30;40.20;99926.47;5052983;28;20352;-61
2022/05/02 13:17:13;;;;;;;;;;;;;;;27.62;38.43;99924.00;5052717;28;20284;-61
2022/05/02 13:19:41;;;;;;;;;;;;;;;28.06;36.46;99917.47;5052612;28;19921;-61
2022/05/02 13:22:06;;;;;;;;;;;;;;;28.39;37.29;99913.84;5052129;28;20378;-61